sensor_id;sensor_type;location;lat;lon;timestamp;temperature;humidity
42683;DHT22;28293;50.930;3.464;2023-11-19T00:02:20;13.70;99.90
42683;DHT22;28293;50.930;3.464;2023-11-19T00:04:46;13.70;99.90
42683;DHT22;28293;50.930;3.464;2023-11-19T00:07:11;13.70;99.90
42683;DHT22;28293;50.930;3.464;2023-11-19T00:09:39;13.70;99.90
42683;DHT22;28293;50.930;3.464;2023-11-19T00:12:06;13.70;99.90
42683;DHT22;28293;50.930;3.464;2023-11-19T00:14:32;13.70;99.90
42683;DHT22;28293;50.930;3.464;2023-11-19T00:17:00;13.70;99.90
42683;DHT22;28293;50.930;3.464;2023-11-19T00:19:29;13.70;99.90
42683;DHT22;28293;50.930;3.464;2023-11-19T00:21:55;13.70;99.90
42683;DHT22;28293;50.930;3.464;2023-11-19T00:24:20;13.60;99.90
42683;DHT22;28293;50.930;3.464;2023-11-19T00:26:46;13.60;99.90
42683;DHT22;28293;50.930;3.464;2023-11-19T00:29:12;13.60;99.90
42683;DHT22;28293;50.930;3.464;2023-11-19T00:31:39;13.60;99.80
42683;DHT22;28293;50.930;3.464;2023-11-19T00:34:05;13.60;99.80
42683;DHT22;28293;50.930;3.464;2023-11-19T00:36:31;13.60;99.70
42683;DHT22;28293;50.930;3.464;2023-11-19T00:38:57;13.60;99.60
42683;DHT22;28293;50.930;3.464;2023-11-19T00:41:23;13.60;99.60
42683;DHT22;28293;50.930;3.464;2023-11-19T00:43:49;13.60;99.50
42683;DHT22;28293;50.930;3.464;2023-11-19T00:46:14;13.60;99.30
42683;DHT22;28293;50.930;3.464;2023-11-19T00:48:40;13.60;99.30
42683;DHT22;28293;50.930;3.464;2023-11-19T00:51:06;13.60;99.00
42683;DHT22;28293;50.930;3.464;2023-11-19T00:53:32;13.70;98.70
42683;DHT22;28293;50.930;3.464;2023-11-19T00:55:59;13.60;98.50
42683;DHT22;28293;50.930;3.464;2023-11-19T00:58:25;13.60;98.40
42683;DHT22;28293;50.930;3.464;2023-11-19T01:00:50;13.60;98.40
42683;DHT22;28293;50.930;3.464;2023-11-19T01:03:16;13.50;98.40
42683;DHT22;28293;50.930;3.464;2023-11-19T01:05:42;13.40;98.40
42683;DHT22;28293;50.930;3.464;2023-11-19T01:08:07;13.40;98.50
42683;DHT22;28293;50.930;3.464;2023-11-19T01:10:33;13.30;98.60
42683;DHT22;28293;50.930;3.464;2023-11-19T01:12:59;13.30;98.60
42683;DHT22;28293;50.930;3.464;2023-11-19T01:15:25;13.30;98.70
42683;DHT22;28293;50.930;3.464;2023-11-19T01:17:51;13.30;98.80
42683;DHT22;28293;50.930;3.464;2023-11-19T01:20:17;13.30;98.80
42683;DHT22;28293;50.930;3.464;2023-11-19T01:22:43;13.30;98.90
42683;DHT22;28293;50.930;3.464;2023-11-19T01:25:09;13.30;98.80
42683;DHT22;28293;50.930;3.464;2023-11-19T01:27:35;13.20;98.80
42683;DHT22;28293;50.930;3.464;2023-11-19T01:30:04;13.20;98.80
42683;DHT22;28293;50.930;3.464;2023-11-19T01:32:31;13.20;98.80
42683;DHT22;28293;50.930;3.464;2023-11-19T01:34:57;13.20;98.80
42683;DHT22;28293;50.930;3.464;2023-11-19T01:37:23;13.20;98.80
42683;DHT22;28293;50.930;3.464;2023-11-19T01:39:48;13.20;98.70
42683;DHT22;28293;50.930;3.464;2023-11-19T01:42:14;13.10;98.60
42683;DHT22;28293;50.930;3.464;2023-11-19T01:44:41;13.20;98.60
42683;DHT22;28293;50.930;3.464;2023-11-19T01:47:07;13.10;98.70
42683;DHT22;28293;50.930;3.464;2023-11-19T01:49:34;13.10;98.70
42683;DHT22;28293;50.930;3.464;2023-11-19T01:52:00;13.10;98.70
42683;DHT22;28293;50.930;3.464;2023-11-19T01:54:26;13.10;98.60
42683;DHT22;28293;50.930;3.464;2023-11-19T01:56:56;13.10;98.60
42683;DHT22;28293;50.930;3.464;2023-11-19T01:59:23;13.10;98.40
42683;DHT22;28293;50.930;3.464;2023-11-19T02:01:53;13.10;98.40
42683;DHT22;28293;50.930;3.464;2023-11-19T02:04:21;13.10;98.40
42683;DHT22;28293;50.930;3.464;2023-11-19T02:06:48;13.10;98.40
42683;DHT22;28293;50.930;3.464;2023-11-19T02:09:16;13.10;98.40
42683;DHT22;28293;50.930;3.464;2023-11-19T02:11:45;13.10;98.30
42683;DHT22;28293;50.930;3.464;2023-11-19T02:14:14;13.10;98.30
42683;DHT22;28293;50.930;3.464;2023-11-19T02:16:39;13.00;98.30
42683;DHT22;28293;50.930;3.464;2023-11-19T02:19:05;13.00;98.30
42683;DHT22;28293;50.930;3.464;2023-11-19T02:21:31;13.00;98.30
42683;DHT22;28293;50.930;3.464;2023-11-19T02:23:57;13.00;98.30
42683;DHT22;28293;50.930;3.464;2023-11-19T02:26:25;13.00;98.20
42683;DHT22;28293;50.930;3.464;2023-11-19T02:28:53;12.90;98.00
42683;DHT22;28293;50.930;3.464;2023-11-19T02:31:19;12.90;98.10
42683;DHT22;28293;50.930;3.464;2023-11-19T02:33:45;12.90;98.10
42683;DHT22;28293;50.930;3.464;2023-11-19T02:36:11;12.80;98.00
42683;DHT22;28293;50.930;3.464;2023-11-19T02:38:37;12.80;97.90
42683;DHT22;28293;50.930;3.464;2023-11-19T02:41:03;12.70;97.90
42683;DHT22;28293;50.930;3.464;2023-11-19T02:43:33;12.70;97.90
42683;DHT22;28293;50.930;3.464;2023-11-19T02:46:03;12.70;98.00
42683;DHT22;28293;50.930;3.464;2023-11-19T02:48:32;12.70;97.90
42683;DHT22;28293;50.930;3.464;2023-11-19T02:50:58;12.70;97.80
42683;DHT22;28293;50.930;3.464;2023-11-19T02:53:24;12.70;97.70
42683;DHT22;28293;50.930;3.464;2023-11-19T02:55:50;12.60;97.60
42683;DHT22;28293;50.930;3.464;2023-11-19T02:58:16;12.60;97.50
42683;DHT22;28293;50.930;3.464;2023-11-19T03:00:53;12.50;97.50
42683;DHT22;28293;50.930;3.464;2023-11-19T03:03:35;12.50;97.60
42683;DHT22;28293;50.930;3.464;2023-11-19T03:06:05;12.40;97.60
42683;DHT22;28293;50.930;3.464;2023-11-19T03:08:30;12.40;97.50
42683;DHT22;28293;50.930;3.464;2023-11-19T03:10:56;12.40;97.50
42683;DHT22;28293;50.930;3.464;2023-11-19T03:13:22;12.40;97.50
42683;DHT22;28293;50.930;3.464;2023-11-19T03:15:47;12.40;97.50
42683;DHT22;28293;50.930;3.464;2023-11-19T03:18:13;12.30;97.40
42683;DHT22;28293;50.930;3.464;2023-11-19T03:20:39;12.40;97.50
42683;DHT22;28293;50.930;3.464;2023-11-19T03:23:05;12.30;97.50
42683;DHT22;28293;50.930;3.464;2023-11-19T03:25:31;12.30;97.50
42683;DHT22;28293;50.930;3.464;2023-11-19T03:28:02;12.40;97.50
42683;DHT22;28293;50.930;3.464;2023-11-19T03:30:28;12.40;97.30
42683;DHT22;28293;50.930;3.464;2023-11-19T03:32:58;12.40;97.20
42683;DHT22;28293;50.930;3.464;2023-11-19T03:35:24;12.50;96.90
42683;DHT22;28293;50.930;3.464;2023-11-19T03:37:50;12.60;96.50
42683;DHT22;28293;50.930;3.464;2023-11-19T03:40:16;12.60;96.20
42683;DHT22;28293;50.930;3.464;2023-11-19T03:42:42;12.60;95.90
42683;DHT22;28293;50.930;3.464;2023-11-19T03:45:08;12.60;95.80
42683;DHT22;28293;50.930;3.464;2023-11-19T03:47:37;12.50;95.80
42683;DHT22;28293;50.930;3.464;2023-11-19T03:50:04;12.50;95.90
42683;DHT22;28293;50.930;3.464;2023-11-19T03:52:30;12.50;95.90
42683;DHT22;28293;50.930;3.464;2023-11-19T03:54:56;12.40;95.80
42683;DHT22;28293;50.930;3.464;2023-11-19T03:57:23;12.40;95.80
42683;DHT22;28293;50.930;3.464;2023-11-19T03:59:48;12.30;95.80
42683;DHT22;28293;50.930;3.464;2023-11-19T04:02:15;12.30;95.80
42683;DHT22;28293;50.930;3.464;2023-11-19T04:04:41;12.30;95.80
42683;DHT22;28293;50.930;3.464;2023-11-19T04:07:07;12.30;95.60
42683;DHT22;28293;50.930;3.464;2023-11-19T04:09:32;12.30;95.40
42683;DHT22;28293;50.930;3.464;2023-11-19T04:12:03;12.30;95.20
42683;DHT22;28293;50.930;3.464;2023-11-19T04:14:29;12.30;95.00
42683;DHT22;28293;50.930;3.464;2023-11-19T04:16:55;12.30;94.80
42683;DHT22;28293;50.930;3.464;2023-11-19T04:19:21;12.20;94.90
42683;DHT22;28293;50.930;3.464;2023-11-19T04:21:47;12.20;94.80
42683;DHT22;28293;50.930;3.464;2023-11-19T04:24:13;12.20;94.80
42683;DHT22;28293;50.930;3.464;2023-11-19T04:26:43;12.10;94.80
42683;DHT22;28293;50.930;3.464;2023-11-19T04:29:12;12.10;94.70
42683;DHT22;28293;50.930;3.464;2023-11-19T04:31:38;12.10;94.80
42683;DHT22;28293;50.930;3.464;2023-11-19T04:34:05;12.10;94.90
42683;DHT22;28293;50.930;3.464;2023-11-19T04:36:32;12.10;95.10
42683;DHT22;28293;50.930;3.464;2023-11-19T04:38:58;12.10;95.00
42683;DHT22;28293;50.930;3.464;2023-11-19T04:41:25;12.10;95.00
42683;DHT22;28293;50.930;3.464;2023-11-19T04:43:51;12.00;95.00
42683;DHT22;28293;50.930;3.464;2023-11-19T04:46:16;12.00;95.20
42683;DHT22;28293;50.930;3.464;2023-11-19T04:48:42;11.90;95.00
42683;DHT22;28293;50.930;3.464;2023-11-19T04:51:08;11.90;95.00
42683;DHT22;28293;50.930;3.464;2023-11-19T04:53:36;11.90;95.00
42683;DHT22;28293;50.930;3.464;2023-11-19T04:56:08;11.80;95.10
42683;DHT22;28293;50.930;3.464;2023-11-19T04:58:34;11.70;95.20
42683;DHT22;28293;50.930;3.464;2023-11-19T05:01:01;11.70;95.20
42683;DHT22;28293;50.930;3.464;2023-11-19T05:03:27;11.70;95.30
42683;DHT22;28293;50.930;3.464;2023-11-19T05:05:52;11.70;95.30
42683;DHT22;28293;50.930;3.464;2023-11-19T05:08:19;11.80;95.10
42683;DHT22;28293;50.930;3.464;2023-11-19T05:10:44;11.80;94.70
42683;DHT22;28293;50.930;3.464;2023-11-19T05:13:10;11.90;94.30
42683;DHT22;28293;50.930;3.464;2023-11-19T05:15:36;12.00;93.90
42683;DHT22;28293;50.930;3.464;2023-11-19T05:18:01;11.90;93.80
42683;DHT22;28293;50.930;3.464;2023-11-19T05:20:27;11.90;93.80
42683;DHT22;28293;50.930;3.464;2023-11-19T05:22:53;11.80;93.90
42683;DHT22;28293;50.930;3.464;2023-11-19T05:25:18;11.70;93.90
42683;DHT22;28293;50.930;3.464;2023-11-19T05:27:45;11.60;94.10
42683;DHT22;28293;50.930;3.464;2023-11-19T05:30:11;11.60;94.20
42683;DHT22;28293;50.930;3.464;2023-11-19T05:32:37;11.60;94.40
42683;DHT22;28293;50.930;3.464;2023-11-19T05:35:03;11.60;94.40
42683;DHT22;28293;50.930;3.464;2023-11-19T05:37:28;11.50;94.50
42683;DHT22;28293;50.930;3.464;2023-11-19T05:39:54;11.50;94.70
42683;DHT22;28293;50.930;3.464;2023-11-19T05:42:20;11.50;94.80
42683;DHT22;28293;50.930;3.464;2023-11-19T05:44:45;11.50;95.00
42683;DHT22;28293;50.930;3.464;2023-11-19T05:47:11;11.50;95.10
42683;DHT22;28293;50.930;3.464;2023-11-19T05:49:37;11.50;95.00
42683;DHT22;28293;50.930;3.464;2023-11-19T05:52:04;11.60;95.10
42683;DHT22;28293;50.930;3.464;2023-11-19T05:54:33;11.50;95.00
42683;DHT22;28293;50.930;3.464;2023-11-19T05:57:06;11.60;95.00
42683;DHT22;28293;50.930;3.464;2023-11-19T05:59:35;11.50;95.00
42683;DHT22;28293;50.930;3.464;2023-11-19T06:02:02;11.50;95.00
42683;DHT22;28293;50.930;3.464;2023-11-19T06:04:28;11.50;95.00
42683;DHT22;28293;50.930;3.464;2023-11-19T06:06:53;11.40;95.00
42683;DHT22;28293;50.930;3.464;2023-11-19T06:09:21;11.40;95.10
42683;DHT22;28293;50.930;3.464;2023-11-19T06:11:49;11.40;95.10
42683;DHT22;28293;50.930;3.464;2023-11-19T06:14:16;11.40;95.20
42683;DHT22;28293;50.930;3.464;2023-11-19T06:16:41;11.40;95.30
42683;DHT22;28293;50.930;3.464;2023-11-19T06:19:07;11.30;95.40
42683;DHT22;28293;50.930;3.464;2023-11-19T06:21:33;11.30;95.50
42683;DHT22;28293;50.930;3.464;2023-11-19T06:23:59;11.30;95.60
42683;DHT22;28293;50.930;3.464;2023-11-19T06:26:24;11.30;95.70
42683;DHT22;28293;50.930;3.464;2023-11-19T06:28:50;11.30;95.70
42683;DHT22;28293;50.930;3.464;2023-11-19T06:31:16;11.20;95.70
42683;DHT22;28293;50.930;3.464;2023-11-19T06:33:42;11.20;95.80
42683;DHT22;28293;50.930;3.464;2023-11-19T06:36:08;11.20;95.90
42683;DHT22;28293;50.930;3.464;2023-11-19T06:38:34;11.20;96.10
42683;DHT22;28293;50.930;3.464;2023-11-19T06:41:00;11.10;96.20
42683;DHT22;28293;50.930;3.464;2023-11-19T06:43:26;11.20;96.40
42683;DHT22;28293;50.930;3.464;2023-11-19T06:45:53;11.20;96.50
42683;DHT22;28293;50.930;3.464;2023-11-19T06:48:19;11.30;96.50
42683;DHT22;28293;50.930;3.464;2023-11-19T06:50:45;11.30;96.50
42683;DHT22;28293;50.930;3.464;2023-11-19T06:53:11;11.40;96.60
42683;DHT22;28293;50.930;3.464;2023-11-19T06:55:37;11.50;96.40
42683;DHT22;28293;50.930;3.464;2023-11-19T06:58:02;11.40;96.40
42683;DHT22;28293;50.930;3.464;2023-11-19T07:00:29;11.40;96.40
42683;DHT22;28293;50.930;3.464;2023-11-19T07:02:55;11.40;96.40
42683;DHT22;28293;50.930;3.464;2023-11-19T07:05:20;11.40;96.50
42683;DHT22;28293;50.930;3.464;2023-11-19T07:07:46;11.40;96.50
42683;DHT22;28293;50.930;3.464;2023-11-19T07:10:12;11.40;96.50
42683;DHT22;28293;50.930;3.464;2023-11-19T07:12:38;11.40;96.50
42683;DHT22;28293;50.930;3.464;2023-11-19T07:15:04;11.40;96.50
42683;DHT22;28293;50.930;3.464;2023-11-19T07:17:31;11.50;96.50
42683;DHT22;28293;50.930;3.464;2023-11-19T07:19:56;11.40;96.30
42683;DHT22;28293;50.930;3.464;2023-11-19T07:22:25;11.50;96.30
42683;DHT22;28293;50.930;3.464;2023-11-19T07:24:51;11.50;96.10
42683;DHT22;28293;50.930;3.464;2023-11-19T07:27:17;11.50;96.20
42683;DHT22;28293;50.930;3.464;2023-11-19T07:29:44;11.50;96.30
42683;DHT22;28293;50.930;3.464;2023-11-19T07:32:10;11.60;96.20
42683;DHT22;28293;50.930;3.464;2023-11-19T07:34:36;11.70;96.10
42683;DHT22;28293;50.930;3.464;2023-11-19T07:37:02;11.80;96.00
42683;DHT22;28293;50.930;3.464;2023-11-19T07:39:31;11.80;95.90
42683;DHT22;28293;50.930;3.464;2023-11-19T07:41:56;11.80;95.70
42683;DHT22;28293;50.930;3.464;2023-11-19T07:44:22;11.90;95.60
42683;DHT22;28293;50.930;3.464;2023-11-19T07:46:47;12.00;95.30
42683;DHT22;28293;50.930;3.464;2023-11-19T07:49:13;12.00;95.20
42683;DHT22;28293;50.930;3.464;2023-11-19T07:51:39;11.90;95.20
42683;DHT22;28293;50.930;3.464;2023-11-19T07:54:05;12.00;95.20
42683;DHT22;28293;50.930;3.464;2023-11-19T07:56:34;12.00;95.20
42683;DHT22;28293;50.930;3.464;2023-11-19T07:59:03;12.00;95.20
42683;DHT22;28293;50.930;3.464;2023-11-19T08:01:29;12.00;95.30
42683;DHT22;28293;50.930;3.464;2023-11-19T08:03:55;12.00;95.30
42683;DHT22;28293;50.930;3.464;2023-11-19T08:06:20;12.00;95.50
42683;DHT22;28293;50.930;3.464;2023-11-19T08:08:46;12.10;95.50
42683;DHT22;28293;50.930;3.464;2023-11-19T08:11:13;12.10;95.30
42683;DHT22;28293;50.930;3.464;2023-11-19T08:13:39;12.10;95.30
42683;DHT22;28293;50.930;3.464;2023-11-19T08:16:05;12.10;95.20
42683;DHT22;28293;50.930;3.464;2023-11-19T08:18:31;12.10;95.20
42683;DHT22;28293;50.930;3.464;2023-11-19T08:20:56;12.20;95.20
42683;DHT22;28293;50.930;3.464;2023-11-19T08:23:24;12.30;95.20
42683;DHT22;28293;50.930;3.464;2023-11-19T08:25:51;12.40;95.00
42683;DHT22;28293;50.930;3.464;2023-11-19T08:28:16;12.40;94.90
42683;DHT22;28293;50.930;3.464;2023-11-19T08:30:42;12.40;94.80
42683;DHT22;28293;50.930;3.464;2023-11-19T08:33:09;12.50;94.70
42683;DHT22;28293;50.930;3.464;2023-11-19T08:35:35;12.40;94.50
42683;DHT22;28293;50.930;3.464;2023-11-19T08:38:00;12.40;94.70
42683;DHT22;28293;50.930;3.464;2023-11-19T08:40:27;12.40;94.90
42683;DHT22;28293;50.930;3.464;2023-11-19T08:42:53;12.50;94.90
42683;DHT22;28293;50.930;3.464;2023-11-19T08:45:18;12.60;94.90
42683;DHT22;28293;50.930;3.464;2023-11-19T08:47:44;12.80;94.80
42683;DHT22;28293;50.930;3.464;2023-11-19T08:50:11;13.00;94.50
42683;DHT22;28293;50.930;3.464;2023-11-19T08:52:36;13.10;94.10
42683;DHT22;28293;50.930;3.464;2023-11-19T08:55:02;13.20;93.90
42683;DHT22;28293;50.930;3.464;2023-11-19T08:57:31;13.20;93.50
42683;DHT22;28293;50.930;3.464;2023-11-19T08:59:56;13.30;93.10
42683;DHT22;28293;50.930;3.464;2023-11-19T09:02:22;13.30;93.10
42683;DHT22;28293;50.930;3.464;2023-11-19T09:04:47;13.20;92.80
42683;DHT22;28293;50.930;3.464;2023-11-19T09:07:13;13.20;92.80
42683;DHT22;28293;50.930;3.464;2023-11-19T09:09:39;13.10;92.80
42683;DHT22;28293;50.930;3.464;2023-11-19T09:12:04;13.10;92.80
42683;DHT22;28293;50.930;3.464;2023-11-19T09:14:30;13.20;92.80
42683;DHT22;28293;50.930;3.464;2023-11-19T09:16:56;13.20;92.70
42683;DHT22;28293;50.930;3.464;2023-11-19T09:19:22;13.50;92.90
42683;DHT22;28293;50.930;3.464;2023-11-19T09:21:47;13.60;92.60
42683;DHT22;28293;50.930;3.464;2023-11-19T09:24:14;13.80;91.80
42683;DHT22;28293;50.930;3.464;2023-11-19T09:26:40;13.80;91.60
42683;DHT22;28293;50.930;3.464;2023-11-19T09:29:07;13.80;91.40
42683;DHT22;28293;50.930;3.464;2023-11-19T09:31:33;13.60;91.30
42683;DHT22;28293;50.930;3.464;2023-11-19T09:34:00;13.60;91.60
42683;DHT22;28293;50.930;3.464;2023-11-19T09:36:25;13.40;91.90
42683;DHT22;28293;50.930;3.464;2023-11-19T09:38:51;13.30;92.30
42683;DHT22;28293;50.930;3.464;2023-11-19T09:41:17;13.40;92.50
42683;DHT22;28293;50.930;3.464;2023-11-19T09:43:45;13.30;92.70
42683;DHT22;28293;50.930;3.464;2023-11-19T09:46:13;13.30;92.80
42683;DHT22;28293;50.930;3.464;2023-11-19T09:48:40;13.30;92.80
42683;DHT22;28293;50.930;3.464;2023-11-19T09:51:11;13.30;92.90
42683;DHT22;28293;50.930;3.464;2023-11-19T09:53:37;13.20;93.20
42683;DHT22;28293;50.930;3.464;2023-11-19T09:56:04;13.10;93.70
42683;DHT22;28293;50.930;3.464;2023-11-19T09:58:33;13.10;93.90
42683;DHT22;28293;50.930;3.464;2023-11-19T10:01:00;13.10;94.30
42683;DHT22;28293;50.930;3.464;2023-11-19T10:03:47;13.10;94.40
42683;DHT22;28293;50.930;3.464;2023-11-19T10:06:14;13.00;94.60
42683;DHT22;28293;50.930;3.464;2023-11-19T10:08:41;13.00;94.70
42683;DHT22;28293;50.930;3.464;2023-11-19T10:11:08;13.00;94.90
42683;DHT22;28293;50.930;3.464;2023-11-19T10:13:36;13.10;95.10
42683;DHT22;28293;50.930;3.464;2023-11-19T10:16:08;13.10;94.80
42683;DHT22;28293;50.930;3.464;2023-11-19T10:18:34;13.10;94.40
42683;DHT22;28293;50.930;3.464;2023-11-19T10:21:06;13.20;94.30
42683;DHT22;28293;50.930;3.464;2023-11-19T10:23:51;13.30;94.20
42683;DHT22;28293;50.930;3.464;2023-11-19T10:26:17;13.30;94.30
42683;DHT22;28293;50.930;3.464;2023-11-19T10:28:43;13.40;94.20
42683;DHT22;28293;50.930;3.464;2023-11-19T10:31:15;13.40;93.90
42683;DHT22;28293;50.930;3.464;2023-11-19T10:33:41;13.50;93.50
42683;DHT22;28293;50.930;3.464;2023-11-19T10:36:09;13.50;93.40
42683;DHT22;28293;50.930;3.464;2023-11-19T10:38:35;13.70;93.30
42683;DHT22;28293;50.930;3.464;2023-11-19T10:41:00;13.80;92.70
42683;DHT22;28293;50.930;3.464;2023-11-19T10:43:26;14.00;92.30
42683;DHT22;28293;50.930;3.464;2023-11-19T10:45:53;14.10;91.70
42683;DHT22;28293;50.930;3.464;2023-11-19T10:48:19;14.10;91.50
42683;DHT22;28293;50.930;3.464;2023-11-19T10:50:48;14.20;91.00
42683;DHT22;28293;50.930;3.464;2023-11-19T10:53:15;14.20;90.60
42683;DHT22;28293;50.930;3.464;2023-11-19T10:55:41;14.20;90.50
42683;DHT22;28293;50.930;3.464;2023-11-19T10:58:08;14.20;90.70
42683;DHT22;28293;50.930;3.464;2023-11-19T11:00:44;14.30;91.20
42683;DHT22;28293;50.930;3.464;2023-11-19T11:03:20;14.30;90.60
42683;DHT22;28293;50.930;3.464;2023-11-19T11:05:50;14.20;90.90
42683;DHT22;28293;50.930;3.464;2023-11-19T11:08:17;14.10;91.00
42683;DHT22;28293;50.930;3.464;2023-11-19T11:10:54;14.10;91.20
42683;DHT22;28293;50.930;3.464;2023-11-19T11:13:22;14.20;91.20
42683;DHT22;28293;50.930;3.464;2023-11-19T11:15:49;14.20;90.90
42683;DHT22;28293;50.930;3.464;2023-11-19T11:18:15;14.10;90.70
42683;DHT22;28293;50.930;3.464;2023-11-19T11:20:44;14.10;91.00
42683;DHT22;28293;50.930;3.464;2023-11-19T11:26:05;14.40;90.80
42683;DHT22;28293;50.930;3.464;2023-11-19T11:37:21;14.10;91.20
42683;DHT22;28293;50.930;3.464;2023-11-19T11:39:52;14.10;91.50
42683;DHT22;28293;50.930;3.464;2023-11-19T11:48:29;13.90;92.60
42683;DHT22;28293;50.930;3.464;2023-11-19T11:50:53;14.10;92.80
42683;DHT22;28293;50.930;3.464;2023-11-19T11:53:21;14.10;92.20
42683;DHT22;28293;50.930;3.464;2023-11-19T11:58:21;14.00;91.60
42683;DHT22;28293;50.930;3.464;2023-11-19T12:00:47;14.10;92.10
42683;DHT22;28293;50.930;3.464;2023-11-19T12:03:13;14.10;91.80
42683;DHT22;28293;50.930;3.464;2023-11-19T12:05:44;14.10;91.90
42683;DHT22;28293;50.930;3.464;2023-11-19T12:08:11;14.10;92.00
42683;DHT22;28293;50.930;3.464;2023-11-19T12:13:14;14.40;92.20
42683;DHT22;28293;50.930;3.464;2023-11-19T12:18:31;14.40;91.30
42683;DHT22;28293;50.930;3.464;2023-11-19T12:20:58;14.40;91.00
42683;DHT22;28293;50.930;3.464;2023-11-19T12:23:27;14.30;91.10
42683;DHT22;28293;50.930;3.464;2023-11-19T12:25:54;14.10;91.50
42683;DHT22;28293;50.930;3.464;2023-11-19T12:28:20;14.10;91.70
42683;DHT22;28293;50.930;3.464;2023-11-19T12:30:47;13.90;91.80
42683;DHT22;28293;50.930;3.464;2023-11-19T12:33:14;13.70;92.60
42683;DHT22;28293;50.930;3.464;2023-11-19T12:35:41;13.70;93.00
42683;DHT22;28293;50.930;3.464;2023-11-19T12:38:07;13.70;92.70
42683;DHT22;28293;50.930;3.464;2023-11-19T12:40:33;13.60;92.50
42683;DHT22;28293;50.930;3.464;2023-11-19T12:42:59;13.60;92.80
42683;DHT22;28293;50.930;3.464;2023-11-19T12:45:37;13.60;92.70
42683;DHT22;28293;50.930;3.464;2023-11-19T12:48:09;13.70;92.70
42683;DHT22;28293;50.930;3.464;2023-11-19T12:53:15;13.70;92.70
42683;DHT22;28293;50.930;3.464;2023-11-19T12:55:41;13.80;92.80
42683;DHT22;28293;50.930;3.464;2023-11-19T12:58:07;13.70;92.70
42683;DHT22;28293;50.930;3.464;2023-11-19T13:00:32;13.70;93.00
42683;DHT22;28293;50.930;3.464;2023-11-19T13:02:58;13.70;93.00
42683;DHT22;28293;50.930;3.464;2023-11-19T13:05:33;13.70;93.00
42683;DHT22;28293;50.930;3.464;2023-11-19T13:08:05;13.70;93.10
42683;DHT22;28293;50.930;3.464;2023-11-19T13:10:33;13.70;93.20
42683;DHT22;28293;50.930;3.464;2023-11-19T13:13:03;13.80;93.00
42683;DHT22;28293;50.930;3.464;2023-11-19T13:15:29;13.80;92.80
42683;DHT22;28293;50.930;3.464;2023-11-19T13:17:55;13.70;92.60
42683;DHT22;28293;50.930;3.464;2023-11-19T13:20:21;13.70;92.70
42683;DHT22;28293;50.930;3.464;2023-11-19T13:22:59;13.70;92.70
42683;DHT22;28293;50.930;3.464;2023-11-19T13:25:30;13.70;92.50
42683;DHT22;28293;50.930;3.464;2023-11-19T13:27:56;13.80;92.20
42683;DHT22;28293;50.930;3.464;2023-11-19T13:30:23;13.80;92.00
42683;DHT22;28293;50.930;3.464;2023-11-19T13:32:49;13.70;91.90
42683;DHT22;28293;50.930;3.464;2023-11-19T13:35:16;13.70;92.20
42683;DHT22;28293;50.930;3.464;2023-11-19T13:37:43;13.60;92.50
42683;DHT22;28293;50.930;3.464;2023-11-19T13:40:10;13.60;92.50
42683;DHT22;28293;50.930;3.464;2023-11-19T13:42:38;13.60;92.70
42683;DHT22;28293;50.930;3.464;2023-11-19T13:45:11;13.50;93.10
42683;DHT22;28293;50.930;3.464;2023-11-19T13:47:43;13.50;93.60
42683;DHT22;28293;50.930;3.464;2023-11-19T13:50:10;13.40;94.20
42683;DHT22;28293;50.930;3.464;2023-11-19T13:52:40;13.40;94.10
42683;DHT22;28293;50.930;3.464;2023-11-19T13:55:08;13.30;94.20
42683;DHT22;28293;50.930;3.464;2023-11-19T13:57:38;13.20;94.50
42683;DHT22;28293;50.930;3.464;2023-11-19T14:00:05;13.30;95.00
42683;DHT22;28293;50.930;3.464;2023-11-19T14:02:40;13.30;94.80
42683;DHT22;28293;50.930;3.464;2023-11-19T14:05:06;13.40;94.80
42683;DHT22;28293;50.930;3.464;2023-11-19T14:07:32;13.30;94.80
42683;DHT22;28293;50.930;3.464;2023-11-19T14:09:58;13.20;94.80
42683;DHT22;28293;50.930;3.464;2023-11-19T14:12:24;13.20;94.80
42683;DHT22;28293;50.930;3.464;2023-11-19T14:14:50;13.20;94.50
42683;DHT22;28293;50.930;3.464;2023-11-19T14:17:15;13.10;94.40
42683;DHT22;28293;50.930;3.464;2023-11-19T14:19:42;13.20;94.20
42683;DHT22;28293;50.930;3.464;2023-11-19T14:22:08;13.20;93.70
42683;DHT22;28293;50.930;3.464;2023-11-19T14:24:34;13.30;93.40
42683;DHT22;28293;50.930;3.464;2023-11-19T14:27:00;13.30;92.80
42683;DHT22;28293;50.930;3.464;2023-11-19T14:29:27;13.40;92.80
42683;DHT22;28293;50.930;3.464;2023-11-19T14:31:55;13.40;92.60
42683;DHT22;28293;50.930;3.464;2023-11-19T14:34:21;13.40;92.40
42683;DHT22;28293;50.930;3.464;2023-11-19T14:36:46;13.40;92.30
42683;DHT22;28293;50.930;3.464;2023-11-19T14:39:13;13.40;92.20
42683;DHT22;28293;50.930;3.464;2023-11-19T14:41:38;13.40;91.90
42683;DHT22;28293;50.930;3.464;2023-11-19T14:44:05;13.40;91.90
42683;DHT22;28293;50.930;3.464;2023-11-19T14:46:31;13.30;91.90
42683;DHT22;28293;50.930;3.464;2023-11-19T14:48:57;13.20;91.80
42683;DHT22;28293;50.930;3.464;2023-11-19T14:51:23;13.20;91.80
42683;DHT22;28293;50.930;3.464;2023-11-19T14:53:48;13.20;92.00
42683;DHT22;28293;50.930;3.464;2023-11-19T14:56:14;13.20;92.00
42683;DHT22;28293;50.930;3.464;2023-11-19T14:58:40;13.20;92.00
42683;DHT22;28293;50.930;3.464;2023-11-19T15:01:06;13.20;92.00
42683;DHT22;28293;50.930;3.464;2023-11-19T15:03:33;13.20;92.00
42683;DHT22;28293;50.930;3.464;2023-11-19T15:05:59;13.10;91.80
42683;DHT22;28293;50.930;3.464;2023-11-19T15:08:25;13.20;91.70
42683;DHT22;28293;50.930;3.464;2023-11-19T15:10:50;13.10;91.50
42683;DHT22;28293;50.930;3.464;2023-11-19T15:13:16;13.10;91.40
42683;DHT22;28293;50.930;3.464;2023-11-19T15:15:42;13.20;91.30
42683;DHT22;28293;50.930;3.464;2023-11-19T15:18:08;13.20;91.20
42683;DHT22;28293;50.930;3.464;2023-11-19T15:20:35;13.20;91.00
42683;DHT22;28293;50.930;3.464;2023-11-19T15:23:01;13.10;91.20
42683;DHT22;28293;50.930;3.464;2023-11-19T15:25:27;13.10;91.20
42683;DHT22;28293;50.930;3.464;2023-11-19T15:27:53;13.10;91.30
42683;DHT22;28293;50.930;3.464;2023-11-19T15:30:19;13.10;91.40
42683;DHT22;28293;50.930;3.464;2023-11-19T15:32:44;13.10;91.60
42683;DHT22;28293;50.930;3.464;2023-11-19T15:35:10;13.10;91.70
42683;DHT22;28293;50.930;3.464;2023-11-19T15:37:36;13.10;92.00
42683;DHT22;28293;50.930;3.464;2023-11-19T15:40:07;13.00;92.10
42683;DHT22;28293;50.930;3.464;2023-11-19T15:42:36;13.00;92.30
42683;DHT22;28293;50.930;3.464;2023-11-19T15:45:02;13.00;92.30
42683;DHT22;28293;50.930;3.464;2023-11-19T15:47:30;12.90;92.60
42683;DHT22;28293;50.930;3.464;2023-11-19T15:49:56;12.90;92.90
42683;DHT22;28293;50.930;3.464;2023-11-19T15:52:22;12.90;93.00
42683;DHT22;28293;50.930;3.464;2023-11-19T15:54:47;12.80;93.20
42683;DHT22;28293;50.930;3.464;2023-11-19T15:57:13;12.70;93.40